createdAt,value
2022-08-23T00:00:13.077Z,78.76
2022-08-23T00:01:08.474Z,78.84
2022-08-23T00:01:46.878Z,78.83
2022-08-23T00:02:23.436Z,78.81
2022-08-23T00:02:57.927Z,78.82
2022-08-23T00:03:31.031Z,78.72
2022-08-23T00:04:08.526Z,78.73
2022-08-23T00:04:53.230Z,78.68
2022-08-23T00:05:40.192Z,78.70
2022-08-23T00:06:14.001Z,78.71
2022-08-23T00:06:49.391Z,78.71
2022-08-23T00:07:23.536Z,78.82
2022-08-23T00:07:56.895Z,78.76
2022-08-23T00:08:30.482Z,78.74
2022-08-23T00:09:05.159Z,78.75
2022-08-23T00:09:38.892Z,78.70
2022-08-23T00:10:15.982Z,78.75
2022-08-23T00:10:49.074Z,78.70
2022-08-23T00:11:45.459Z,78.69
2022-08-23T00:12:22.917Z,78.71
2022-08-23T00:12:56.109Z,78.81
2022-08-23T00:13:48.225Z,78.70
2022-08-23T00:14:28.378Z,78.73
2022-08-23T00:15:02.451Z,78.77
2022-08-23T00:15:35.874Z,78.78
2022-08-23T00:16:10.009Z,78.72
2022-08-23T00:16:43.905Z,78.74
2022-08-23T00:17:34.329Z,78.73
2022-08-23T00:18:08.215Z,78.64
2022-08-23T00:18:41.912Z,78.72
2022-08-23T00:19:24.357Z,78.79
2022-08-23T00:19:57.859Z,78.72
2022-08-23T00:20:31.056Z,78.82
2022-08-23T00:21:04.304Z,78.68
2022-08-23T00:21:39.548Z,78.85
2022-08-23T00:22:14.538Z,78.79
2022-08-23T00:22:51.108Z,78.86
2022-08-23T00:23:24.297Z,78.87
2022-08-23T00:23:57.885Z,78.78
2022-08-23T00:24:31.521Z,78.86
2022-08-23T00:25:07.754Z,78.87
2022-08-23T00:25:41.639Z,78.82
2022-08-23T00:26:15.250Z,78.91
2022-08-23T00:27:07.872Z,78.93
2022-08-23T00:27:41.049Z,78.81
2022-08-23T00:28:14.724Z,78.99
2022-08-23T00:28:50.142Z,78.80
2022-08-23T00:29:33.633Z,78.78
2022-08-23T00:30:10.241Z,78.73
2022-08-23T00:30:43.611Z,78.84
2022-08-23T00:31:19.254Z,78.83
2022-08-23T00:31:53.267Z,78.83
2022-08-23T00:32:30.618Z,78.84
2022-08-23T00:33:04.320Z,78.80
2022-08-23T00:33:37.466Z,78.86
2022-08-23T00:34:10.770Z,78.87
2022-08-23T00:34:44.454Z,78.77
2022-08-23T00:35:26.234Z,78.88
2022-08-23T00:35:59.958Z,78.87
2022-08-23T00:36:34.013Z,78.85
2022-08-23T00:37:09.672Z,78.76
2022-08-23T00:37:44.152Z,78.84
2022-08-23T00:38:34.066Z,78.85
2022-08-23T00:39:08.315Z,78.76
2022-08-23T00:39:42.053Z,78.80
2022-08-23T00:40:18.072Z,78.76
2022-08-23T00:40:53.266Z,78.80
2022-08-23T00:41:27.283Z,78.76
2022-08-23T00:42:26.712Z,78.69
2022-08-23T00:43:25.609Z,78.72
2022-08-23T00:44:19.044Z,78.61
2022-08-23T00:45:11.420Z,78.74
2022-08-23T00:46:18.667Z,78.61
2022-08-23T00:47:13.327Z,78.58
2022-08-23T00:47:47.229Z,78.78
2022-08-23T00:48:21.523Z,78.69
2022-08-23T00:48:56.389Z,78.83
2022-08-23T00:49:32.732Z,78.74
2022-08-23T00:50:24.175Z,78.72
2022-08-23T00:51:05.826Z,78.61
2022-08-23T00:51:53.026Z,78.77
2022-08-23T00:52:42.492Z,78.76
2022-08-23T00:53:23.755Z,78.87
2022-08-23T00:54:00.511Z,78.84
2022-08-23T00:54:34.966Z,78.85
2022-08-23T00:55:09.001Z,78.84
2022-08-23T00:55:46.177Z,78.86
2022-08-23T00:56:21.754Z,78.85
2022-08-23T00:57:02.452Z,78.87
2022-08-23T00:57:37.528Z,78.89
2022-08-23T00:58:13.514Z,78.72
2022-08-23T00:58:47.427Z,78.75
2022-08-23T00:59:21.240Z,78.87
2022-08-23T00:59:54.491Z,78.82
2022-08-23T01:00:28.588Z,78.89
2022-08-23T01:01:02.985Z,78.85
2022-08-23T01:01:36.342Z,78.82
2022-08-23T01:02:10.179Z,78.92
2022-08-23T01:02:46.718Z,78.87
2022-08-23T01:03:23.413Z,78.80
2022-08-23T01:04:04.948Z,78.94
2022-08-23T01:04:49.437Z,78.84
2022-08-23T01:05:28.546Z,78.91
2022-08-23T01:06:14.227Z,78.74
2022-08-23T01:07:04.677Z,78.65
2022-08-23T01:07:52.092Z,78.88
2022-08-23T01:08:27.131Z,78.84
2022-08-23T01:09:08.384Z,78.81
2022-08-23T01:09:44.649Z,78.82
2022-08-23T01:10:42.922Z,78.77
2022-08-23T01:11:33.627Z,78.87
2022-08-23T01:12:15.349Z,78.79
2022-08-23T01:12:56.594Z,78.86
2022-08-23T01:13:40.700Z,78.80
2022-08-23T01:14:26.756Z,78.91
2022-08-23T01:15:07.005Z,78.82
2022-08-23T01:15:52.422Z,78.93
2022-08-23T01:16:33.848Z,78.84
2022-08-23T01:17:26.204Z,78.99
2022-08-23T01:18:08.422Z,78.97
2022-08-23T01:18:43.471Z,79.03
2022-08-23T01:19:57.662Z,79.01
2022-08-23T01:20:43.128Z,78.98
2022-08-23T01:22:13.190Z,79.13
2022-08-23T01:23:02.529Z,79.08
2022-08-23T01:23:53.842Z,79.12
2022-08-23T01:24:42.588Z,79.02
2022-08-23T01:25:23.854Z,79.09
2022-08-23T01:25:58.183Z,79.09
2022-08-23T01:26:35.441Z,79.11
2022-08-23T01:27:11.852Z,79.15
2022-08-23T01:27:46.347Z,79.11
2022-08-23T01:28:19.896Z,78.99
2022-08-23T01:28:54.841Z,79.04
2022-08-23T01:29:28.034Z,79.08
2022-08-23T01:30:01.472Z,79.03
2022-08-23T01:30:36.715Z,79.06
2022-08-23T01:31:11.706Z,79.06
2022-08-23T01:31:44.975Z,79.06
2022-08-23T01:32:18.532Z,79.05
2022-08-23T01:32:56.575Z,79.04
2022-08-23T01:33:30.076Z,79.01
2022-08-23T01:34:07.297Z,78.94
2022-08-23T01:34:45.905Z,79.03
2022-08-23T01:35:37.027Z,78.90
2022-08-23T01:36:13.883Z,78.89
2022-08-23T01:36:47.081Z,78.80
2022-08-23T01:37:22.154Z,78.79
2022-08-23T01:37:55.413Z,78.72
2022-08-23T01:38:28.576Z,78.80
2022-08-23T01:39:08.185Z,78.77
2022-08-23T01:39:41.433Z,78.77
2022-08-23T01:40:15.395Z,78.78
2022-08-23T01:40:49.213Z,78.66
2022-08-23T01:41:23.048Z,78.67
2022-08-23T01:41:56.242Z,78.77
2022-08-23T01:42:29.437Z,78.69
2022-08-23T01:43:02.889Z,78.72
2022-08-23T01:43:36.716Z,78.66
2022-08-23T01:44:10.086Z,78.72
2022-08-23T01:44:43.193Z,78.65
2022-08-23T01:45:17.251Z,78.69
2022-08-23T01:45:52.779Z,78.61
2022-08-23T01:46:27.329Z,78.59
2022-08-23T01:47:00.716Z,78.65
2022-08-23T01:47:33.877Z,78.52
2022-08-23T01:48:07.193Z,78.54
2022-08-23T01:48:41.505Z,78.57
2022-08-23T01:49:15.236Z,78.49
2022-08-23T01:49:48.412Z,78.55
2022-08-23T01:50:21.790Z,78.52
2022-08-23T01:50:55.232Z,78.48
2022-08-23T01:51:28.534Z,78.50
2022-08-23T01:52:01.988Z,78.58
2022-08-23T01:52:37.135Z,78.44
2022-08-23T01:53:10.607Z,78.51
2022-08-23T01:53:44.324Z,78.51
2022-08-23T01:54:17.590Z,78.48
2022-08-23T01:54:50.717Z,78.51
2022-08-23T01:55:24.787Z,78.50
2022-08-23T01:56:00.667Z,78.55
2022-08-23T01:56:38.982Z,78.43
2022-08-23T01:57:12.855Z,78.48
2022-08-23T01:57:49.556Z,78.53
2022-08-23T01:58:23.065Z,78.41
2022-08-23T01:58:56.326Z,78.37
2022-08-23T01:59:29.650Z,78.59
2022-08-23T02:00:06.140Z,78.47
2022-08-23T02:00:42.778Z,78.59
2022-08-23T02:01:17.449Z,78.52
2022-08-23T02:01:50.692Z,78.62
2022-08-23T02:02:25.242Z,78.59
2022-08-23T02:02:59.595Z,78.60
2022-08-23T02:03:34.154Z,78.68
2022-08-23T02:04:07.768Z,78.76
2022-08-23T02:04:40.927Z,78.72
2022-08-23T02:05:14.529Z,78.71
2022-08-23T02:06:30.929Z,78.60
2022-08-23T02:07:04.334Z,78.75
2022-08-23T02:07:37.512Z,78.74
2022-08-23T02:08:32.149Z,78.74
2022-08-23T02:09:17.698Z,78.68
2022-08-23T02:09:51.291Z,78.76
2022-08-23T02:10:24.368Z,78.82
2022-08-23T02:10:57.629Z,78.85
2022-08-23T02:11:37.533Z,78.91
2022-08-23T02:12:11.194Z,78.94
2022-08-23T02:12:44.860Z,79.02
2022-08-23T02:13:19.316Z,79.04
2022-08-23T02:13:54.380Z,79.07
2022-08-23T02:14:27.747Z,79.12
2022-08-23T02:15:00.883Z,79.20
2022-08-23T02:15:34.275Z,79.26
2022-08-23T02:16:07.946Z,79.33
2022-08-23T02:17:03.767Z,79.33
2022-08-23T02:17:38.423Z,79.28
2022-08-23T02:18:12.906Z,79.43
2022-08-23T02:18:47.459Z,79.45
2022-08-23T02:19:20.960Z,79.35
2022-08-23T02:19:55.456Z,79.37
2022-08-23T02:20:28.880Z,79.45
2022-08-23T02:21:02.613Z,79.49
2022-08-23T02:21:36.952Z,79.50
2022-08-23T02:22:10.271Z,79.46
2022-08-23T02:22:43.457Z,79.47
2022-08-23T02:23:18.049Z,79.49
2022-08-23T02:23:54.269Z,79.53
2022-08-23T02:24:28.082Z,79.55
2022-08-23T02:25:01.420Z,79.50
2022-08-23T02:25:34.727Z,79.44
2022-08-23T02:26:08.115Z,79.54
2022-08-23T02:26:46.546Z,79.38
2022-08-23T02:27:19.876Z,79.43
2022-08-23T02:27:52.970Z,79.43
2022-08-23T02:28:26.165Z,79.37
2022-08-23T02:28:59.377Z,79.32
2022-08-23T02:29:38.342Z,79.33
2022-08-23T02:30:13.263Z,79.28
2022-08-23T02:30:47.246Z,79.25
2022-08-23T02:31:22.049Z,79.24
2022-08-23T02:31:59.897Z,79.20
2022-08-23T02:32:33.222Z,79.30
2022-08-23T02:33:06.636Z,79.22
2022-08-23T02:33:39.769Z,79.28
2022-08-23T02:34:14.653Z,79.20
2022-08-23T02:34:55.690Z,79.27
2022-08-23T02:35:40.233Z,79.17
2022-08-23T02:36:13.381Z,79.10
2022-08-23T02:36:46.873Z,79.19
2022-08-23T02:37:20.598Z,79.21
2022-08-23T02:37:54.005Z,79.08
2022-08-23T02:38:27.701Z,79.02
2022-08-23T02:39:01.035Z,79.13
2022-08-23T02:39:34.502Z,79.07
2022-08-23T02:40:08.084Z,79.01
2022-08-23T02:40:42.534Z,79.00
2022-08-23T02:41:18.187Z,79.02
2022-08-23T02:41:52.201Z,79.03
2022-08-23T02:42:25.407Z,79.01
2022-08-23T02:43:00.333Z,79.06
2022-08-23T02:43:37.306Z,79.10
2022-08-23T02:44:13.149Z,79.17
2022-08-23T02:44:46.624Z,79.14
2022-08-23T02:45:20.337Z,79.14
2022-08-23T02:45:53.544Z,79.24
2022-08-23T02:46:27.243Z,79.09
2022-08-23T02:47:03.903Z,79.13
2022-08-23T02:47:37.277Z,79.15
2022-08-23T02:48:10.435Z,79.11
2022-08-23T02:48:44.363Z,79.19
2022-08-23T02:49:17.957Z,79.14
2022-08-23T02:49:52.428Z,79.12
2022-08-23T02:50:26.843Z,79.12
2022-08-23T02:51:05.960Z,79.11
2022-08-23T02:51:39.676Z,79.15
2022-08-23T02:52:13.114Z,79.10
2022-08-23T02:52:46.418Z,79.14
2022-08-23T02:53:19.536Z,79.19
2022-08-23T02:53:52.731Z,79.13
2022-08-23T02:54:25.865Z,79.10
2022-08-23T02:55:00.325Z,79.03
2022-08-23T02:55:34.186Z,78.96
2022-08-23T02:56:21.261Z,78.95
2022-08-23T02:56:55.090Z,78.90
2022-08-23T02:57:28.347Z,78.96
2022-08-23T02:58:05.949Z,78.93
2022-08-23T02:58:39.873Z,78.89
2022-08-23T02:59:19.344Z,78.82
2022-08-23T02:59:52.852Z,78.89
2022-08-23T03:00:26.915Z,78.93
2022-08-23T03:01:01.281Z,78.87
2022-08-23T03:01:38.305Z,78.89
2022-08-23T03:02:12.602Z,78.99
2022-08-23T03:02:46.694Z,79.03
2022-08-23T03:03:22.570Z,79.07
2022-08-23T03:03:57.253Z,79.02
2022-08-23T03:04:31.329Z,79.21
2022-08-23T03:05:06.340Z,79.15
2022-08-23T03:05:39.468Z,79.14
2022-08-23T03:06:25.373Z,79.17
2022-08-23T03:06:59.529Z,79.26
2022-08-23T03:07:32.930Z,79.22
2022-08-23T03:08:08.659Z,79.28
2022-08-23T03:08:42.892Z,79.20
2022-08-23T03:09:17.465Z,79.24
2022-08-23T03:09:50.639Z,79.34
2022-08-23T03:10:24.500Z,79.38
2022-08-23T03:10:57.731Z,79.30
2022-08-23T03:11:30.775Z,79.38
2022-08-23T03:12:04.335Z,79.38
2022-08-23T03:12:38.185Z,79.40
2022-08-23T03:13:12.359Z,79.32
2022-08-23T03:13:48.332Z,79.33
2022-08-23T03:14:21.514Z,79.29
2022-08-23T03:14:55.161Z,79.40
2022-08-23T03:15:29.177Z,79.33
2022-08-23T03:16:02.365Z,79.31
2022-08-23T03:16:35.558Z,79.28
2022-08-23T03:17:08.744Z,79.25
2022-08-23T03:17:42.494Z,79.29
2022-08-23T03:18:16.645Z,79.35
2022-08-23T03:18:50.756Z,79.37
2022-08-23T03:19:24.645Z,79.28
2022-08-23T03:19:57.959Z,79.29
2022-08-23T03:20:31.210Z,79.28
2022-08-23T03:21:06.261Z,79.28
2022-08-23T03:21:39.661Z,79.26
2022-08-23T03:22:16.533Z,79.28
2022-08-23T03:22:54.460Z,79.25
2022-08-23T03:23:28.907Z,79.27
2022-08-23T03:24:05.727Z,79.28
2022-08-23T03:24:41.421Z,79.28
2022-08-23T03:25:14.656Z,79.29
2022-08-23T03:25:49.591Z,79.34
2022-08-23T03:26:22.783Z,79.28
2022-08-23T03:26:56.172Z,79.38
2022-08-23T03:27:31.816Z,79.28
2022-08-23T03:28:12.216Z,79.27
2022-08-23T03:28:46.677Z,79.21
2022-08-23T03:29:20.215Z,79.20
2022-08-23T03:29:53.485Z,79.21
2022-08-23T03:30:26.938Z,79.19
2022-08-23T03:31:00.063Z,79.19
2022-08-23T03:31:33.174Z,79.18
2022-08-23T03:32:07.767Z,79.22
2022-08-23T03:32:41.167Z,79.18
2022-08-23T03:33:23.093Z,79.20
2022-08-23T03:33:56.316Z,79.06
2022-08-23T03:34:29.785Z,79.15
2022-08-23T03:35:03.205Z,79.12
2022-08-23T03:35:40.556Z,79.16
2022-08-23T03:36:14.184Z,79.06
2022-08-23T03:36:47.407Z,79.00
2022-08-23T03:37:21.191Z,78.97
2022-08-23T03:37:55.419Z,78.97
2022-08-23T03:38:28.734Z,79.04
2022-08-23T03:39:02.035Z,79.01
2022-08-23T03:39:35.092Z,78.96
2022-08-23T03:40:09.215Z,79.00
2022-08-23T03:40:43.687Z,78.96
2022-08-23T03:41:17.805Z,78.97
2022-08-23T03:41:51.377Z,78.94
2022-08-23T03:42:30.837Z,78.99
2022-08-23T03:43:05.283Z,79.02
2022-08-23T03:43:39.074Z,78.99
2022-08-23T03:44:12.838Z,78.95
2022-08-23T03:44:46.359Z,79.03
2022-08-23T03:45:20.600Z,79.12
2022-08-23T03:45:53.922Z,79.25
2022-08-23T03:46:29.909Z,79.12
2022-08-23T03:47:06.443Z,79.13
2022-08-23T03:47:39.721Z,79.25
2022-08-23T03:48:12.815Z,79.14
2022-08-23T03:48:46.037Z,79.26
2022-08-23T03:49:19.753Z,79.22
2022-08-23T03:49:52.972Z,79.39
2022-08-23T03:50:26.583Z,79.34
2022-08-23T03:51:00.545Z,79.39
2022-08-23T03:51:34.691Z,79.49
2022-08-23T03:52:08.700Z,79.43
2022-08-23T03:52:42.023Z,79.50
2022-08-23T03:53:15.280Z,79.54
2022-08-23T03:53:49.718Z,79.49
2022-08-23T03:54:23.080Z,79.63
2022-08-23T03:54:56.182Z,79.75
2022-08-23T03:55:29.629Z,79.78
2022-08-23T03:56:02.996Z,79.89
2022-08-23T03:56:40.464Z,79.92
2022-08-23T03:57:13.793Z,79.87
2022-08-23T03:57:46.956Z,79.94
2022-08-23T03:58:21.875Z,79.78
2022-08-23T03:58:56.576Z,79.74
2022-08-23T03:59:31.734Z,79.86
2022-08-23T04:00:07.933Z,79.84
2022-08-23T04:00:41.141Z,79.90
2022-08-23T04:01:14.377Z,79.82
2022-08-23T04:01:48.179Z,79.78
2022-08-23T04:02:22.132Z,79.88
2022-08-23T04:02:55.419Z,79.79
2022-08-23T04:03:28.480Z,79.84
2022-08-23T04:04:01.683Z,79.81
2022-08-23T04:04:35.357Z,79.78
2022-08-23T04:05:11.299Z,79.78
2022-08-23T04:05:45.164Z,79.76
2022-08-23T04:06:19.455Z,79.79
2022-08-23T04:06:52.576Z,79.61
2022-08-23T04:07:26.285Z,79.62
2022-08-23T04:07:59.824Z,79.60
2022-08-23T04:08:33.850Z,79.52
2022-08-23T04:09:07.396Z,79.57
2022-08-23T04:09:40.571Z,79.48
2022-08-23T04:10:15.948Z,79.47
2022-08-23T04:10:49.164Z,79.42
2022-08-23T04:11:23.823Z,79.42
2022-08-23T04:11:58.184Z,79.31
2022-08-23T04:12:31.574Z,79.31
2022-08-23T04:13:05.482Z,79.25
2022-08-23T04:13:39.955Z,79.21
2022-08-23T04:14:13.564Z,79.15
2022-08-23T04:14:47.075Z,79.13
2022-08-23T04:15:20.718Z,79.09
2022-08-23T04:15:54.086Z,79.08
2022-08-23T04:16:27.446Z,79.22
2022-08-23T04:17:00.709Z,79.17
2022-08-23T04:17:34.324Z,79.22
2022-08-23T04:18:07.785Z,79.18
2022-08-23T04:18:42.809Z,79.27
2022-08-23T04:19:16.429Z,79.26
2022-08-23T04:19:49.944Z,79.28
2022-08-23T04:20:23.244Z,79.13
2022-08-23T04:20:56.479Z,79.24
2022-08-23T04:21:29.657Z,79.23
2022-08-23T04:22:02.879Z,79.28
2022-08-23T04:22:35.944Z,79.30
2022-08-23T04:23:09.097Z,79.43
2022-08-23T04:23:43.625Z,79.46
2022-08-23T04:24:19.336Z,79.49
2022-08-23T04:24:52.639Z,79.49
2022-08-23T04:25:34.790Z,79.50
2022-08-23T04:26:09.674Z,79.49
2022-08-23T04:26:43.557Z,79.48
2022-08-23T04:27:18.351Z,79.54
2022-08-23T04:27:51.584Z,79.63
2022-08-23T04:28:25.053Z,79.63
2022-08-23T04:28:58.428Z,79.61
2022-08-23T04:29:34.299Z,79.66
2022-08-23T04:30:08.658Z,79.62
2022-08-23T04:30:47.429Z,79.60
2022-08-23T04:31:22.330Z,79.63
2022-08-23T04:31:55.764Z,79.52
2022-08-23T04:32:29.244Z,79.56
2022-08-23T04:33:02.441Z,79.55
2022-08-23T04:33:35.963Z,79.56
2022-08-23T04:34:13.747Z,79.50
2022-08-23T04:34:51.574Z,79.47
2022-08-23T04:35:25.780Z,79.47
2022-08-23T04:36:03.067Z,79.55
2022-08-23T04:36:41.388Z,79.49
2022-08-23T04:37:19.260Z,79.49
2022-08-23T04:37:53.151Z,79.52
2022-08-23T04:38:26.585Z,79.50
2022-08-23T04:38:59.950Z,79.53
2022-08-23T04:39:53.924Z,79.52
2022-08-23T04:40:45.961Z,79.55
2022-08-23T04:41:38.080Z,79.50
2022-08-23T04:42:20.310Z,79.56
2022-08-23T04:42:56.218Z,79.61
2022-08-23T04:43:30.237Z,79.75
2022-08-23T04:44:03.750Z,79.72
2022-08-23T04:44:37.009Z,79.76
2022-08-23T04:45:11.945Z,79.65
2022-08-23T04:45:45.494Z,79.77
2022-08-23T04:46:18.719Z,79.87
2022-08-23T04:46:51.981Z,79.85
2022-08-23T04:47:25.364Z,79.82
2022-08-23T04:47:58.960Z,79.84
2022-08-23T04:48:33.624Z,79.89
2022-08-23T04:49:07.165Z,79.89
2022-08-23T04:49:40.282Z,80.01
2022-08-23T04:50:13.653Z,80.01
2022-08-23T04:50:46.828Z,80.02
2022-08-23T04:51:20.559Z,79.98
2022-08-23T04:51:54.412Z,80.06
2022-08-23T04:52:27.703Z,80.14
2022-08-23T04:53:00.985Z,80.11
2022-08-23T04:53:35.646Z,80.09
2022-08-23T04:54:09.101Z,80.12
2022-08-23T04:54:42.219Z,80.18
2022-08-23T04:55:15.756Z,80.18
2022-08-23T04:55:50.709Z,80.18
2022-08-23T04:56:23.900Z,80.15
2022-08-23T04:56:57.236Z,80.31
2022-08-23T04:57:30.330Z,80.20
2022-08-23T04:58:04.598Z,80.31
2022-08-23T04:58:41.987Z,80.26
2022-08-23T04:59:15.485Z,80.38
2022-08-23T04:59:48.803Z,80.37
2022-08-23T05:00:22.067Z,80.29
2022-08-23T05:01:03.546Z,80.35
2022-08-23T05:01:36.797Z,80.33
2022-08-23T05:02:10.213Z,80.38
2022-08-23T05:02:43.865Z,80.44
2022-08-23T05:03:16.952Z,80.42
2022-08-23T05:03:50.746Z,80.47
2022-08-23T05:04:23.770Z,80.56
2022-08-23T05:04:57.006Z,80.47
2022-08-23T05:05:30.196Z,80.56
2022-08-23T05:06:05.499Z,80.43
2022-08-23T05:06:38.801Z,80.52
2022-08-23T05:07:11.924Z,80.65
2022-08-23T05:07:45.719Z,80.69
2022-08-23T05:08:19.398Z,80.63
2022-08-23T05:08:53.491Z,80.73
2022-08-23T05:09:27.359Z,80.76
2022-08-23T05:10:00.598Z,80.79
2022-08-23T05:10:34.025Z,80.82
2022-08-23T05:11:09.445Z,80.75
2022-08-23T05:11:43.169Z,80.79
2022-08-23T05:12:16.385Z,80.90
2022-08-23T05:12:49.537Z,80.81
2022-08-23T05:13:22.686Z,80.75
2022-08-23T05:13:56.936Z,80.77
2022-08-23T05:14:30.334Z,80.79
2022-08-23T05:15:04.504Z,80.91
2022-08-23T05:15:37.896Z,80.85
2022-08-23T05:16:11.411Z,80.91
2022-08-23T05:16:44.784Z,80.99
2022-08-23T05:17:19.317Z,80.88
2022-08-23T05:17:52.735Z,80.91
2022-08-23T05:18:27.066Z,81.03
2022-08-23T05:19:00.385Z,81.09
2022-08-23T05:19:33.585Z,81.03
2022-08-23T05:20:10.410Z,80.96
2022-08-23T05:20:43.572Z,81.02
2022-08-23T05:21:21.274Z,81.11
2022-08-23T05:21:57.067Z,81.18
2022-08-23T05:22:34.732Z,81.00
2022-08-23T05:23:07.987Z,81.02
2022-08-23T05:23:41.405Z,81.10
2022-08-23T05:24:15.251Z,81.03
2022-08-23T05:24:48.421Z,81.19
2022-08-23T05:25:22.408Z,81.06
2022-08-23T05:25:56.082Z,81.08
2022-08-23T05:26:29.337Z,81.02
2022-08-23T05:27:02.722Z,80.94
2022-08-23T05:27:36.315Z,81.01
2022-08-23T05:28:09.480Z,80.93
2022-08-23T05:28:48.303Z,80.94
2022-08-23T05:29:21.759Z,80.78
2022-08-23T05:29:55.003Z,80.83
2022-08-23T05:30:28.512Z,80.88
2022-08-23T05:31:23.060Z,80.79
2022-08-23T05:31:57.474Z,80.86
2022-08-23T05:32:33.505Z,80.80
2022-08-23T05:33:07.321Z,80.98
2022-08-23T05:33:42.963Z,80.82
2022-08-23T05:34:16.310Z,80.89
2022-08-23T05:34:53.582Z,80.82
2022-08-23T05:35:26.773Z,80.84
2022-08-23T05:36:00.452Z,80.85
2022-08-23T05:36:34.715Z,80.88
2022-08-23T05:37:07.899Z,80.93
2022-08-23T05:37:41.583Z,80.90
2022-08-23T05:38:18.894Z,80.92
2022-08-23T05:38:54.209Z,80.75
2022-08-23T05:39:35.995Z,80.87
2022-08-23T05:40:12.311Z,80.84
2022-08-23T05:40:48.519Z,80.73
2022-08-23T05:41:33.359Z,80.74
2022-08-23T05:42:16.242Z,80.84
2022-08-23T05:42:49.498Z,80.90
2022-08-23T05:43:23.192Z,80.84
2022-08-23T05:43:56.323Z,80.79
2022-08-23T05:44:30.241Z,80.71
2022-08-23T05:45:09.978Z,80.68
2022-08-23T05:45:43.600Z,80.76
2022-08-23T05:46:22.247Z,80.79
2022-08-23T05:47:01.668Z,80.65
2022-08-23T05:47:35.021Z,80.64
2022-08-23T05:48:08.271Z,80.66
2022-08-23T05:48:44.048Z,80.58
2022-08-23T05:49:20.953Z,80.45
2022-08-23T05:49:54.763Z,80.52
2022-08-23T05:50:28.186Z,80.61
2022-08-23T05:51:16.637Z,80.55
2022-08-23T05:51:51.538Z,80.46
2022-08-23T05:52:25.157Z,80.56
2022-08-23T05:52:58.463Z,80.59
2022-08-23T05:53:31.652Z,80.60
2022-08-23T05:54:08.050Z,80.46
2022-08-23T05:54:42.346Z,80.53
2022-08-23T05:55:15.587Z,80.62
2022-08-23T05:55:48.858Z,80.57
2022-08-23T05:56:28.386Z,80.60
2022-08-23T05:57:02.330Z,80.63
2022-08-23T05:57:38.453Z,80.68
2022-08-23T05:58:11.635Z,80.55
2022-08-23T05:58:46.825Z,80.52
2022-08-23T05:59:20.675Z,80.57
2022-08-23T05:59:53.934Z,80.50
2022-08-23T06:00:37.289Z,80.57
2022-08-23T06:01:14.403Z,80.59
2022-08-23T06:01:47.775Z,80.51
2022-08-23T06:02:23.543Z,80.53
2022-08-23T06:02:56.765Z,80.49
2022-08-23T06:03:29.897Z,80.48
2022-08-23T06:04:06.201Z,80.38
2022-08-23T06:04:39.347Z,80.43
2022-08-23T06:05:13.959Z,80.32
2022-08-23T06:05:47.013Z,80.42
2022-08-23T06:06:20.982Z,80.44
2022-08-23T06:06:56.590Z,80.60
2022-08-23T06:07:31.428Z,80.63
2022-08-23T06:08:04.708Z,80.48
2022-08-23T06:08:40.911Z,80.38
2022-08-23T06:09:16.011Z,80.30
2022-08-23T06:09:49.208Z,80.32
2022-08-23T06:10:22.729Z,80.19
2022-08-23T06:11:05.033Z,80.30
2022-08-23T06:11:38.654Z,80.13
2022-08-23T06:12:11.836Z,80.25
2022-08-23T06:12:44.974Z,80.20
2022-08-23T06:13:18.098Z,80.25
2022-08-23T06:13:54.718Z,80.19
2022-08-23T06:14:28.900Z,80.28
2022-08-23T06:15:02.149Z,80.15
2022-08-23T06:15:35.381Z,79.98
2022-08-23T06:16:14.246Z,79.93
2022-08-23T06:16:54.873Z,79.75
2022-08-23T06:17:29.294Z,79.81
2022-08-23T06:18:02.875Z,79.62
2022-08-23T06:18:37.177Z,79.45
2022-08-23T06:19:10.469Z,79.37
2022-08-23T06:19:43.589Z,79.37
2022-08-23T06:20:16.842Z,79.36
2022-08-23T06:21:10.575Z,79.22
2022-08-23T06:21:43.910Z,79.16
2022-08-23T06:22:17.194Z,79.20
2022-08-23T06:22:50.270Z,79.07
2022-08-23T06:23:23.754Z,79.07
2022-08-23T06:23:57.960Z,79.08
2022-08-23T06:24:31.248Z,79.01
2022-08-23T06:25:08.023Z,79.22
2022-08-23T06:25:42.926Z,79.05
2022-08-23T06:26:25.511Z,78.84
2022-08-23T06:26:58.609Z,78.77
2022-08-23T06:27:31.782Z,78.66
2022-08-23T06:28:05.078Z,78.52
2022-08-23T06:28:50.786Z,78.48
2022-08-23T06:29:24.683Z,78.42
2022-08-23T06:29:57.930Z,78.37
2022-08-23T06:30:31.399Z,78.16
2022-08-23T06:31:04.829Z,78.13
2022-08-23T06:31:49.593Z,77.94
2022-08-23T06:32:22.744Z,77.96
2022-08-23T06:32:56.007Z,78.03
2022-08-23T06:33:30.598Z,77.91
2022-08-23T06:34:04.723Z,77.88
2022-08-23T06:34:38.787Z,77.88
2022-08-23T06:35:32.883Z,77.86
2022-08-23T06:36:08.842Z,77.85
2022-08-23T06:36:42.546Z,77.66
2022-08-23T06:37:16.472Z,77.62
2022-08-23T06:37:49.683Z,77.49
2022-08-23T06:38:22.916Z,77.41
2022-08-23T06:38:56.323Z,77.34
2022-08-23T06:39:35.428Z,77.36
2022-08-23T06:40:11.147Z,77.31
2022-08-23T06:40:44.874Z,77.32
2022-08-23T06:41:18.055Z,77.35
2022-08-23T06:41:52.108Z,77.49
2022-08-23T06:42:41.268Z,77.37
2022-08-23T06:43:14.479Z,77.20
2022-08-23T06:43:48.826Z,77.07
2022-08-23T06:44:22.550Z,76.80
2022-08-23T06:44:55.875Z,76.60
2022-08-23T06:45:34.908Z,76.42
2022-08-23T06:46:19.907Z,76.22
2022-08-23T06:46:57.670Z,76.02
2022-08-23T06:47:31.901Z,75.95
2022-08-23T06:48:05.245Z,75.80
2022-08-23T06:48:39.286Z,75.64
2022-08-23T06:49:13.037Z,75.63
2022-08-23T06:49:55.453Z,75.58
2022-08-23T06:50:32.041Z,75.43
2022-08-23T06:51:14.187Z,75.36
2022-08-23T06:51:51.079Z,75.28
2022-08-23T06:52:27.784Z,75.30
2022-08-23T06:53:01.181Z,75.21
2022-08-23T06:53:40.741Z,75.24
2022-08-23T06:54:16.391Z,75.23
2022-08-23T06:54:49.827Z,75.20
2022-08-23T06:55:22.946Z,75.29
2022-08-23T06:55:56.366Z,75.21
2022-08-23T06:56:30.202Z,75.24
2022-08-23T06:57:04.059Z,75.26
2022-08-23T06:57:37.198Z,75.18
2022-08-23T06:58:10.629Z,75.26
2022-08-23T06:58:46.702Z,75.11
2022-08-23T06:59:21.177Z,75.06
2022-08-23T06:59:55.456Z,75.18
2022-08-23T07:00:28.934Z,75.05
2022-08-23T07:01:45.158Z,75.09
2022-08-23T07:02:18.986Z,75.06
2022-08-23T07:02:52.528Z,75.15
2022-08-23T07:03:25.750Z,75.09
2022-08-23T07:04:00.102Z,75.06
2022-08-23T07:04:39.597Z,74.90
2022-08-23T07:05:13.023Z,74.85
2022-08-23T07:05:46.363Z,74.82
2022-08-23T07:06:19.634Z,74.68
2022-08-23T07:06:53.009Z,74.72
2022-08-23T07:07:41.245Z,74.57
2022-08-23T07:08:17.919Z,74.50
2022-08-23T07:08:51.976Z,74.56
2022-08-23T07:09:27.544Z,74.49
2022-08-23T07:10:00.912Z,74.42
2022-08-23T07:10:34.779Z,74.31
2022-08-23T07:11:08.233Z,74.19
2022-08-23T07:11:45.558Z,74.06
2022-08-23T07:12:20.530Z,73.88
2022-08-23T07:12:53.905Z,73.83
2022-08-23T07:13:27.545Z,73.74
2022-08-23T07:14:02.882Z,73.76
2022-08-23T07:14:38.067Z,73.66
2022-08-23T07:15:12.694Z,73.78
2022-08-23T07:15:45.954Z,73.77
2022-08-23T07:16:23.752Z,73.76
2022-08-23T07:17:00.250Z,73.79
2022-08-23T07:17:33.403Z,73.71
2022-08-23T07:18:06.746Z,73.71
2022-08-23T07:18:41.641Z,73.72
2022-08-23T07:19:16.117Z,73.77
2022-08-23T07:19:49.300Z,73.84
2022-08-23T07:20:22.635Z,73.85
2022-08-23T07:21:01.127Z,73.82
2022-08-23T07:21:34.462Z,73.84
2022-08-23T07:22:07.746Z,73.90
2022-08-23T07:22:41.188Z,73.86
2022-08-23T07:23:16.070Z,73.85
2022-08-23T07:23:49.411Z,73.85
2022-08-23T07:24:23.610Z,73.72
2022-08-23T07:24:57.748Z,73.79
2022-08-23T07:25:31.393Z,73.75
2022-08-23T07:26:09.167Z,73.82
2022-08-23T07:26:43.759Z,73.74
2022-08-23T07:27:17.127Z,73.77
2022-08-23T07:27:50.641Z,73.78
2022-08-23T07:28:23.965Z,73.73
2022-08-23T07:28:57.821Z,73.73
2022-08-23T07:29:31.062Z,73.67
2022-08-23T07:30:07.382Z,73.67
2022-08-23T07:30:44.996Z,73.66
2022-08-23T07:31:27.522Z,73.69
2022-08-23T07:32:00.841Z,73.72
2022-08-23T07:32:34.717Z,73.71
2022-08-23T07:33:08.834Z,73.81
2022-08-23T07:33:44.691Z,73.76
2022-08-23T07:34:19.240Z,73.69
2022-08-23T07:34:52.389Z,73.73
2022-08-23T07:35:25.665Z,73.69
2022-08-23T07:35:59.418Z,73.66
2022-08-23T07:36:34.302Z,73.64
2022-08-23T07:37:15.489Z,73.61
2022-08-23T07:37:49.340Z,73.56
2022-08-23T07:38:22.628Z,73.41
2022-08-23T07:39:06.456Z,73.32
2022-08-23T07:39:40.894Z,73.19
2022-08-23T07:40:20.237Z,73.13
2022-08-23T07:40:54.389Z,73.00
2022-08-23T07:41:32.456Z,72.91
2022-08-23T07:42:22.775Z,72.88
2022-08-23T07:42:58.007Z,72.86